Time;durP1;ratioP1;P1;durP2;ratioP2;P2;SDS_P1;SDS_P2;PMS_P1;PMS_P2;Temp;Humidity;BMP_temperature;BMP_pressure;BME280_temperature;BME280_humidity;BME280_pressure;Samples;Min_cycle;Max_cycle;Signal;HPM_P1;HPM_P2
2022/10/13 00:00:41;;;;;;;4.17;2.93;;;13.20;99.90;;;;;;5013575;28;20465;-70
2022/10/13 00:03:07;;;;;;;1.47;1.37;;;13.20;99.90;;;;;;5013823;28;20515;-70
2022/10/13 00:05:34;;;;;;;1.73;1.63;;;13.30;99.90;;;;;;5013561;28;20434;-72
2022/10/13 00:08:00;;;;;;;0.50;0.50;;;13.30;99.90;;;;;;5013754;28;20425;-70
2022/10/13 00:10:26;;;;;;;0.90;0.90;;;13.20;99.90;;;;;;5013485;28;20776;-71
2022/10/13 00:12:52;;;;;;;1.23;1.13;;;13.10;99.90;;;;;;5013582;28;20398;-69
2022/10/13 00:15:19;;;;;;;0.70;0.70;;;13.10;99.90;;;;;;5013506;28;20473;-70
2022/10/13 00:17:44;;;;;;;2.10;1.40;;;13.10;99.90;;;;;;5013576;28;20496;-71
2022/10/13 00:20:10;;;;;;;2.50;1.50;;;13.00;99.90;;;;;;5013383;28;20904;-72
2022/10/13 00:22:36;;;;;;;2.47;2.27;;;13.00;99.90;;;;;;5013640;28;20178;-72
2022/10/13 00:25:02;;;;;;;1.47;1.23;;;13.00;99.90;;;;;;5013413;28;20410;-71
2022/10/13 00:27:28;;;;;;;0.67;0.67;;;13.00;99.90;;;;;;5015398;28;20430;-70
2022/10/13 00:29:54;;;;;;;0.50;0.50;;;13.00;99.90;;;;;;5017216;28;20402;-71
2022/10/13 00:32:20;;;;;;;2.00;1.90;;;13.00;99.90;;;;;;5017367;28;20412;-70
2022/10/13 00:34:45;;;;;;;0.87;0.87;;;13.00;99.90;;;;;;5017323;28;20695;-71
2022/10/13 00:37:11;;;;;;;2.90;1.60;;;13.10;99.90;;;;;;5017320;28;20430;-69
2022/10/13 00:39:37;;;;;;;10.83;1.33;;;13.00;99.90;;;;;;5017006;28;20254;-71
2022/10/13 00:42:05;;;;;;;1.97;1.80;;;13.00;99.90;;;;;;5017105;28;20171;-70
2022/10/13 00:45:01;;;;;;;1.40;1.30;;;13.00;99.90;;;;;;5017161;28;20417;-71
2022/10/13 00:47:33;;;;;;;1.33;1.33;;;12.90;99.90;;;;;;5016888;28;20446;-69
2022/10/13 00:50:00;;;;;;;1.23;1.13;;;12.90;99.90;;;;;;5016935;28;20391;-69
2022/10/13 00:52:26;;;;;;;1.53;1.17;;;12.90;99.90;;;;;;5016962;28;20405;-69
2022/10/13 00:54:54;;;;;;;2.20;2.00;;;12.90;99.90;;;;;;5016875;28;20481;-70
2022/10/13 00:57:21;;;;;;;2.87;1.73;;;12.90;99.90;;;;;;5016877;28;20943;-71
2022/10/13 00:59:47;;;;;;;0.80;0.80;;;12.90;99.90;;;;;;5016665;28;20411;-72
2022/10/13 01:02:14;;;;;;;3.17;2.33;;;12.90;99.90;;;;;;5016894;28;20402;-69
2022/10/13 01:04:45;;;;;;;2.43;2.27;;;12.80;99.90;;;;;;5015456;28;20866;-69
2022/10/13 01:07:14;;;;;;;4.73;2.90;;;12.90;99.90;;;;;;5016824;28;20460;-68
2022/10/13 01:09:41;;;;;;;1.83;1.73;;;13.00;99.90;;;;;;5016593;28;20408;-72
2022/10/13 01:12:21;;;;;;;4.50;1.73;;;13.00;99.90;;;;;;5016664;28;20418;-69
2022/10/13 01:15:01;;;;;;;2.53;1.80;;;13.00;99.90;;;;;;5016570;28;20882;-69
2022/10/13 01:17:43;;;;;;;1.50;1.20;;;13.10;99.90;;;;;;5016627;28;20931;-71
2022/10/13 01:20:31;;;;;;;2.27;2.07;;;13.10;99.90;;;;;;5016493;28;20402;-72
2022/10/13 01:23:16;;;;;;;0.50;0.50;;;13.00;99.90;;;;;;5016564;28;20391;-70
2022/10/13 01:26:23;;;;;;;1.27;1.23;;;13.00;99.90;;;;;;5016309;28;20394;-71
2022/10/13 01:29:34;;;;;;;2.80;2.40;;;13.10;99.90;;;;;;5015531;28;20414;-72
2022/10/13 01:32:47;;;;;;;1.67;1.57;;;13.10;99.90;;;;;;5000477;28;20417;-71
2022/10/13 01:35:31;;;;;;;0.70;0.70;;;13.20;99.90;;;;;;5012422;28;20963;-68
2022/10/13 01:38:21;;;;;;;1.23;1.23;;;13.20;99.90;;;;;;5015690;28;20951;-69
2022/10/13 01:40:53;;;;;;;1.33;1.23;;;13.20;99.90;;;;;;5015991;28;20497;-71
2022/10/13 01:43:28;;;;;;;2.40;0.90;;;13.20;99.90;;;;;;5015999;28;20470;-72
2022/10/13 01:46:05;;;;;;;1.20;1.20;;;12.70;99.90;;;;;;5015863;28;20940;-69
2022/10/13 01:48:32;;;;;;;2.27;2.17;;;13.10;99.90;;;;;;5016088;28;20890;-69
2022/10/13 01:50:59;;;;;;;1.60;1.53;;;13.10;99.90;;;;;;5015605;28;20779;-69
2022/10/13 01:53:26;;;;;;;1.37;1.37;;;13.10;99.90;;;;;;5015783;28;20809;-70
2022/10/13 01:55:55;;;;;;;1.40;1.30;;;13.20;99.90;;;;;;5015981;28;20783;-71
2022/10/13 01:58:22;;;;;;;6.30;1.73;;;13.10;99.90;;;;;;5015647;28;20407;-69
2022/10/13 02:01:02;;;;;;;1.67;1.57;;;13.10;99.90;;;;;;5015524;28;20457;-70
2022/10/13 02:03:31;;;;;;;2.10;0.80;;;13.10;99.90;;;;;;5015592;28;20413;-71
2022/10/13 02:06:09;;;;;;;5.03;1.37;;;13.20;99.90;;;;;;5015657;28;20417;-68
2022/10/13 02:09:01;;;;;;;0.70;0.70;;;13.20;99.90;;;;;;5015567;28;20387;-68
2022/10/13 02:11:27;;;;;;;2.90;2.57;;;13.10;99.90;;;;;;5015472;28;20406;-71
2022/10/13 02:14:08;;;;;;;2.07;1.97;;;13.10;99.90;;;;;;5015341;28;20458;-71
2022/10/13 02:16:38;;;;;;;2.17;1.47;;;13.10;99.90;;;;;;5015359;28;20188;-70
2022/10/13 02:19:05;;;;;;;2.13;2.03;;;13.10;99.90;;;;;;5015338;28;20518;-71
2022/10/13 02:21:31;;;;;;;1.33;1.23;;;13.00;99.90;;;;;;5015149;28;20403;-71
2022/10/13 02:23:58;;;;;;;1.23;1.23;;;12.90;99.90;;;;;;5015140;28;20812;-70
2022/10/13 02:26:24;;;;;;;0.57;0.57;;;12.90;99.90;;;;;;5015104;28;20445;-71
2022/10/13 02:28:50;;;;;;;1.47;1.47;;;12.80;99.90;;;;;;5014810;28;20861;-70
2022/10/13 02:31:15;;;;;;;1.23;0.90;;;12.80;99.90;;;;;;5015197;28;20449;-72
2022/10/13 02:33:41;;;;;;;1.40;1.40;;;12.80;99.90;;;;;;5014897;28;20453;-70
2022/10/13 02:36:07;;;;;;;1.67;1.57;;;12.20;99.90;;;;;;5014810;28;20591;-72
2022/10/13 02:38:32;;;;;;;2.10;2.00;;;12.70;99.90;;;;;;5013662;28;20205;-69
2022/10/13 02:41:00;;;;;;;3.50;2.33;;;12.70;99.90;;;;;;5014775;28;20203;-69
2022/10/13 02:43:26;;;;;;;1.13;0.90;;;12.70;99.90;;;;;;5014951;28;20226;-69
2022/10/13 02:45:52;;;;;;;2.10;2.00;;;12.60;99.90;;;;;;5014809;28;20428;-71
2022/10/13 02:48:17;;;;;;;4.13;1.60;;;12.60;99.90;;;;;;5014588;28;20223;-71
2022/10/13 02:50:43;;;;;;;1.30;0.90;;;12.50;99.90;;;;;;5014197;28;20581;-70
2022/10/13 02:53:09;;;;;;;1.57;1.47;;;12.50;99.90;;;;;;5014505;28;20201;-72
2022/10/13 02:55:34;;;;;;;0.87;0.87;;;12.50;99.90;;;;;;5014686;28;20179;-71
2022/10/13 02:58:00;;;;;;;2.10;2.00;;;12.40;99.90;;;;;;5014507;28;20189;-70
2022/10/13 03:00:26;;;;;;;2.17;1.57;;;12.40;99.90;;;;;;5013256;28;20720;-70
2022/10/13 03:02:51;;;;;;;1.10;0.90;;;12.30;99.90;;;;;;5014524;28;20171;-69
2022/10/13 03:05:17;;;;;;;2.20;1.90;;;12.30;99.90;;;;;;5014480;28;20178;-69
2022/10/13 03:07:43;;;;;;;0.80;0.70;;;12.30;99.90;;;;;;5014446;28;20710;-70
2022/10/13 03:10:08;;;;;;;1.40;1.30;;;12.20;99.90;;;;;;5014469;28;20536;-73
2022/10/13 03:12:34;;;;;;;1.57;1.20;;;12.20;99.90;;;;;;5014461;28;20175;-68
2022/10/13 03:15:00;;;;;;;1.63;1.53;;;12.00;99.90;;;;;;5014328;28;20222;-71
2022/10/13 03:17:25;;;;;;;1.90;1.47;;;11.90;99.90;;;;;;5014222;28;20188;-71
2022/10/13 03:19:51;;;;;;;2.87;2.67;;;11.80;99.90;;;;;;5013984;28;20192;-71
2022/10/13 03:22:17;;;;;;;4.23;1.50;;;11.70;99.90;;;;;;5014121;28;20481;-72
2022/10/13 03:24:43;;;;;;;1.00;1.00;;;11.70;99.90;;;;;;5014152;28;20183;-68
2022/10/13 03:27:09;;;;;;;2.93;1.77;;;11.60;99.90;;;;;;5014271;28;20570;-71
2022/10/13 03:29:35;;;;;;;27.92;3.63;;;11.60;99.90;;;;;;5014032;28;20540;-69
2022/10/13 03:32:01;;;;;;;0.90;0.90;;;11.60;99.90;;;;;;5014259;28;20175;-69
2022/10/13 03:34:26;;;;;;;0.87;0.87;;;11.50;99.90;;;;;;5014084;28;20322;-70
2022/10/13 03:36:52;;;;;;;1.63;1.53;;;11.50;99.90;;;;;;5014088;28;20924;-69
2022/10/13 03:39:17;;;;;;;1.73;0.90;;;11.40;99.90;;;;;;5013778;28;20171;-71
2022/10/13 03:41:43;;;;;;;1.20;1.20;;;11.40;99.90;;;;;;5013961;28;20712;-71
2022/10/13 03:44:12;;;;;;;1.20;1.20;;;11.40;99.90;;;;;;5014001;28;20199;-71
2022/10/13 03:46:38;;;;;;;0.65;0.65;;;11.30;99.90;;;;;;5013515;28;20210;-73
2022/10/13 03:49:04;;;;;;;1.43;1.33;;;11.40;99.90;;;;;;5013784;28;20180;-72
2022/10/13 03:51:29;;;;;;;1.63;1.63;;;11.40;99.90;;;;;;5013809;28;20406;-70
2022/10/13 03:53:55;;;;;;;3.20;2.77;;;11.40;99.90;;;;;;5013821;28;20954;-70
2022/10/13 03:56:24;;;;;;;0.50;0.50;;;11.40;99.90;;;;;;5013599;28;20269;-69
2022/10/13 03:58:58;;;;;;;2.00;1.90;;;11.40;99.90;;;;;;5013565;28;20164;-70
2022/10/13 04:01:26;;;;;;;1.42;1.33;;;11.40;99.90;;;;;;5012863;28;20591;-70
2022/10/13 04:03:54;;;;;;;1.55;0.90;;;11.30;99.90;;;;;;5013895;28;20169;-68
2022/10/13 04:06:20;;;;;;;1.23;1.17;;;11.40;99.90;;;;;;5013807;28;20249;-69
2022/10/13 04:08:46;;;;;;;0.88;0.88;;;11.40;99.90;;;;;;5013498;28;20179;-71
2022/10/13 04:11:13;;;;;;;2.10;1.10;;;11.40;99.90;;;;;;5013779;28;20183;-70
2022/10/13 04:13:40;;;;;;;1.50;1.40;;;11.40;99.90;;;;;;5013542;28;20589;-70
2022/10/13 04:16:12;;;;;;;2.25;1.92;;;11.30;99.90;;;;;;5013645;28;20569;-72
2022/10/13 04:18:37;;;;;;;3.77;0.93;;;11.50;99.90;;;;;;5012031;28;20170;-72
2022/10/13 04:21:09;;;;;;;1.70;1.67;;;11.50;99.90;;;;;;5013468;28;20880;-71
2022/10/13 04:23:35;;;;;;;0.88;0.88;;;11.50;99.90;;;;;;5014099;28;20182;-70
2022/10/13 04:26:01;;;;;;;4.10;3.23;;;11.70;99.90;;;;;;5013971;28;20229;-69
2022/10/13 04:28:26;;;;;;;1.77;1.67;;;11.60;99.90;;;;;;5014168;28;20415;-70
2022/10/13 04:30:52;;;;;;;1.13;0.57;;;11.60;99.90;;;;;;5013313;28;20501;-71
2022/10/13 04:33:18;;;;;;;4.10;1.37;;;11.70;99.90;;;;;;5013347;28;20199;-73
2022/10/13 04:35:43;;;;;;;2.60;2.40;;;11.70;99.90;;;;;;5013185;28;20179;-71
2022/10/13 04:38:09;;;;;;;2.00;1.90;;;11.80;99.90;;;;;;5011687;28;20194;-69
2022/10/13 04:40:35;;;;;;;0.73;0.73;;;11.80;99.90;;;;;;5013295;28;20178;-72
2022/10/13 04:43:00;;;;;;;1.23;1.17;;;11.80;99.90;;;;;;5013975;28;20167;-73
2022/10/13 04:45:26;;;;;;;2.87;2.73;;;11.80;99.90;;;;;;5013182;28;20261;-70
2022/10/13 04:47:52;;;;;;;3.25;3.15;;;11.80;99.90;;;;;;5011385;28;20214;-72
2022/10/13 04:50:18;;;;;;;0.77;0.77;;;11.90;99.90;;;;;;5013551;28;20184;-68
2022/10/13 04:52:44;;;;;;;1.53;1.43;;;12.00;99.90;;;;;;5013704;28;20558;-72
2022/10/13 04:55:10;;;;;;;4.87;2.73;;;12.00;99.90;;;;;;5013195;28;20542;-70
2022/10/13 04:57:36;;;;;;;1.33;1.23;;;12.10;99.90;;;;;;5011259;28;20187;-70
2022/10/13 05:00:03;;;;;;;1.37;1.23;;;12.10;99.90;;;;;;5013161;28;20793;-70
2022/10/13 05:02:29;;;;;;;1.07;1.07;;;12.10;99.90;;;;;;5013272;28;20617;-72
2022/10/13 05:04:55;;;;;;;0.93;0.93;;;12.10;99.90;;;;;;5011187;28;20407;-72
2022/10/13 05:07:20;;;;;;;1.63;1.53;;;12.10;99.90;;;;;;5013911;28;20907;-72
2022/10/13 05:09:46;;;;;;;2.47;1.30;;;12.10;99.90;;;;;;5010749;28;20715;-71
2022/10/13 05:12:12;;;;;;;1.13;0.87;;;12.10;99.90;;;;;;5010509;28;20641;-72
2022/10/13 05:14:37;;;;;;;1.83;1.73;;;12.10;99.90;;;;;;5016649;28;20640;-71
2022/10/13 05:17:03;;;;;;;2.53;2.40;;;12.10;99.90;;;;;;5014343;28;20197;-71
2022/10/13 05:19:29;;;;;;;1.80;1.70;;;12.10;99.90;;;;;;5013709;28;20187;-73
2022/10/13 05:21:54;;;;;;;2.20;1.77;;;12.10;99.90;;;;;;5016501;28;20343;-74
2022/10/13 05:24:29;;;;;;;0.60;0.60;;;12.10;99.90;;;;;;5014360;28;20256;-73
2022/10/13 05:26:56;;;;;;;1.33;1.33;;;12.10;99.90;;;;;;5014767;28;20211;-72
2022/10/13 05:29:21;;;;;;;2.43;1.03;;;12.10;99.90;;;;;;5017051;28;20407;-75
2022/10/13 05:31:47;;;;;;;0.70;0.70;;;12.10;99.90;;;;;;5016228;28;20893;-71
2022/10/13 05:34:12;;;;;;;1.23;1.07;;;12.10;99.90;;;;;;5017794;28;20255;-72
2022/10/13 05:36:38;;;;;;;0.87;0.83;;;12.10;99.90;;;;;;5014979;28;20241;-73
2022/10/13 05:39:08;;;;;;;1.47;1.37;;;12.10;99.90;;;;;;5014945;28;20172;-73
2022/10/13 05:41:34;;;;;;;1.23;1.00;;;12.20;99.90;;;;;;5016812;28;20178;-73
2022/10/13 05:44:02;;;;;;;1.27;1.27;;;12.20;99.90;;;;;;5016230;28;20410;-72
2022/10/13 05:46:28;;;;;;;4.67;1.90;;;12.30;99.90;;;;;;5015814;28;20214;-73
2022/10/13 05:48:54;;;;;;;1.87;1.60;;;12.30;99.90;;;;;;5014582;28;20408;-74
2022/10/13 05:51:45;;;;;;;0.90;0.90;;;12.30;99.90;;;;;;5015541;28;20249;-70
2022/10/13 05:54:25;;;;;;;1.80;1.70;;;12.30;99.90;;;;;;5016664;28;20187;-71
2022/10/13 05:56:56;;;;;;;0.80;0.80;;;12.30;99.90;;;;;;5015399;28;20423;-70
2022/10/13 05:59:23;;;;;;;2.33;1.60;;;12.40;99.90;;;;;;5015237;28;20458;-71
2022/10/13 06:01:50;;;;;;;1.30;1.20;;;12.40;99.90;;;;;;5016562;28;20406;-71
2022/10/13 06:04:24;;;;;;;0.57;0.57;;;12.50;99.90;;;;;;5016583;28;20410;-73
2022/10/13 06:06:50;;;;;;;1.10;1.10;;;12.50;99.90;;;;;;5015943;28;20765;-71
2022/10/13 06:09:16;;;;;;;3.10;2.37;;;12.60;99.90;;;;;;5015631;28;20466;-72
2022/10/13 06:11:42;;;;;;;1.83;1.73;;;12.60;99.90;;;;;;5015548;28;20964;-72
2022/10/13 06:14:07;;;;;;;2.40;2.20;;;12.60;99.90;;;;;;5015939;28;20536;-72
2022/10/13 06:16:35;;;;;;;1.00;1.00;;;12.70;99.90;;;;;;5015768;28;20186;-72
2022/10/13 06:19:01;;;;;;;0.80;0.80;;;12.70;99.90;;;;;;5015897;28;20518;-73
2022/10/13 06:21:27;;;;;;;3.63;1.30;;;12.80;99.90;;;;;;5015404;28;20401;-71
2022/10/13 06:23:53;;;;;;;1.20;1.20;;;12.80;99.90;;;;;;5015320;28;20422;-71
2022/10/13 06:26:18;;;;;;;1.17;1.07;;;12.80;99.90;;;;;;5015141;28;20210;-70
2022/10/13 06:28:44;;;;;;;1.53;1.47;;;12.90;99.90;;;;;;5015591;28;20175;-71
2022/10/13 06:31:10;;;;;;;1.80;1.30;;;12.90;99.90;;;;;;5015069;28;20181;-71
2022/10/13 06:33:35;;;;;;;1.67;1.57;;;13.00;99.90;;;;;;5015621;28;20202;-71
2022/10/13 06:36:04;;;;;;;0.97;0.90;;;13.20;99.90;;;;;;5015214;28;20678;-70
2022/10/13 06:38:30;;;;;;;1.47;1.37;;;13.10;99.90;;;;;;5015202;28;20200;-71
2022/10/13 06:41:01;;;;;;;1.43;1.33;;;13.20;99.90;;;;;;5015204;28;20512;-67
2022/10/13 06:43:27;;;;;;;0.73;0.73;;;13.30;99.90;;;;;;5014285;28;20409;-67
2022/10/13 06:45:52;;;;;;;4.33;2.60;;;13.40;99.90;;;;;;5013456;28;20536;-67
2022/10/13 06:48:18;;;;;;;1.50;1.40;;;13.40;99.90;;;;;;5014802;28;20465;-68
2022/10/13 06:50:44;;;;;;;4.23;1.73;;;13.50;99.90;;;;;;5014811;28;20616;-68
2022/10/13 06:53:09;;;;;;;2.77;2.17;;;13.60;99.90;;;;;;5015293;28;20170;-68
2022/10/13 06:55:35;;;;;;;1.20;1.10;;;13.70;99.90;;;;;;5014803;28;20199;-67
2022/10/13 06:58:01;;;;;;;1.00;0.90;;;13.70;99.90;;;;;;5014516;28;20190;-68
2022/10/13 07:00:26;;;;;;;2.53;1.87;;;13.90;99.90;;;;;;5014338;28;20174;-67
2022/10/13 07:02:52;;;;;;;1.60;0.90;;;14.00;99.90;;;;;;5014567;28;20170;-68
2022/10/13 07:05:18;;;;;;;1.33;1.17;;;14.20;99.90;;;;;;5014871;28;20207;-68
2022/10/13 07:07:45;;;;;;;3.40;3.20;;;14.30;99.90;;;;;;5013723;28;20536;-68
2022/10/13 07:10:11;;;;;;;2.73;1.67;;;14.30;99.90;;;;;;5013045;28;20411;-68
2022/10/13 07:12:37;;;;;;;3.80;3.07;;;14.30;99.90;;;;;;5014905;28;20679;-68
2022/10/13 07:15:02;;;;;;;4.93;3.67;;;14.40;99.90;;;;;;5012974;28;20207;-67
2022/10/13 07:17:28;;;;;;;2.77;2.67;;;14.30;99.90;;;;;;5013859;28;20195;-67
2022/10/13 07:19:54;;;;;;;3.13;2.50;;;14.40;99.90;;;;;;5014259;28;20398;-68
2022/10/13 07:22:19;;;;;;;3.30;3.10;;;14.50;99.90;;;;;;5011893;28;20257;-68
2022/10/13 07:24:45;;;;;;;2.00;1.43;;;14.60;99.90;;;;;;5014509;28;20191;-67
2022/10/13 07:27:11;;;;;;;3.33;2.50;;;14.60;99.90;;;;;;5014078;28;20218;-68
2022/10/13 07:29:36;;;;;;;1.27;1.00;;;14.70;99.90;;;;;;5013232;28;20202;-68
2022/10/13 07:32:02;;;;;;;1.90;1.00;;;14.70;99.90;;;;;;5014127;28;20179;-67
2022/10/13 07:34:28;;;;;;;2.30;1.43;;;14.70;99.90;;;;;;5014300;28;20649;-67
2022/10/13 07:36:53;;;;;;;3.53;2.53;;;14.80;99.90;;;;;;5013453;28;20188;-68
2022/10/13 07:39:19;;;;;;;3.03;1.43;;;14.80;99.90;;;;;;5014196;28;20258;-67
2022/10/13 07:41:45;;;;;;;3.27;1.30;;;14.90;99.90;;;;;;5014230;28;20259;-68
2022/10/13 07:44:10;;;;;;;2.00;1.90;;;14.90;99.90;;;;;;5014618;28;20549;-68
2022/10/13 07:46:36;;;;;;;4.10;3.13;;;15.00;99.90;;;;;;5013894;28;20249;-67
2022/10/13 07:49:01;;;;;;;3.03;2.70;;;15.00;99.90;;;;;;5013724;28;20211;-68
2022/10/13 07:51:27;;;;;;;1.80;1.67;;;15.10;99.90;;;;;;5014236;28;20226;-69
2022/10/13 07:53:53;;;;;;;3.60;2.20;;;15.20;99.90;;;;;;5014076;28;20199;-69
2022/10/13 07:56:19;;;;;;;3.77;3.47;;;15.30;99.90;;;;;;5014407;28;20742;-67
2022/10/13 07:58:46;;;;;;;4.20;2.17;;;15.50;99.90;;;;;;5014412;28;20513;-68
2022/10/13 08:01:13;;;;;;;1.50;1.40;;;15.70;99.90;;;;;;5013984;28;20175;-69
2022/10/13 08:03:40;;;;;;;2.30;1.60;;;16.00;99.40;;;;;;5013739;28;20770;-67
2022/10/13 08:06:06;;;;;;;2.07;1.93;;;16.10;98.20;;;;;;5013911;28;20826;-68
2022/10/13 08:08:32;;;;;;;2.93;2.00;;;16.40;98.30;;;;;;5014112;28;20406;-69
2022/10/13 08:11:03;;;;;;;2.87;2.53;;;16.80;98.00;;;;;;5013998;28;20522;-69
2022/10/13 08:13:29;;;;;;;1.60;1.50;;;17.20;97.20;;;;;;5011854;28;20190;-68
2022/10/13 08:15:54;;;;;;;1.63;1.53;;;17.60;96.30;;;;;;5013696;28;20777;-67
2022/10/13 08:18:20;;;;;;;3.00;2.80;;;17.60;95.30;;;;;;5013604;28;20635;-69
2022/10/13 08:20:46;;;;;;;2.10;2.00;;;17.80;95.60;;;;;;5011515;28;20182;-69
2022/10/13 08:23:12;;;;;;;9.20;3.00;;;17.90;95.40;;;;;;5013954;28;20167;-69
2022/10/13 08:25:44;;;;;;;1.70;1.60;;;18.10;94.80;;;;;;5013522;28;20226;-68
2022/10/13 08:28:20;;;;;;;2.50;1.60;;;18.30;94.50;;;;;;5011752;28;20439;-68
2022/10/13 08:30:46;;;;;;;1.27;1.17;;;18.30;94.10;;;;;;5011950;28;20418;-69
2022/10/13 08:33:12;;;;;;;2.67;2.47;;;18.20;94.20;;;;;;5011091;28;20433;-68
2022/10/13 08:35:38;;;;;;;2.37;1.53;;;18.20;94.40;;;;;;5012128;28;20459;-69
2022/10/13 08:38:06;;;;;;;1.67;1.57;;;17.90;94.30;;;;;;5012050;28;20451;-68
2022/10/13 08:40:32;;;;;;;1.57;1.47;;;17.60;94.50;;;;;;5013267;28;20495;-70
2022/10/13 08:42:58;;;;;;;1.37;1.20;;;17.40;94.90;;;;;;5012252;28;21037;-68
2022/10/13 08:45:29;;;;;;;1.47;1.37;;;17.30;95.30;;;;;;5012349;28;20223;-69
2022/10/13 08:48:04;;;;;;;1.43;1.33;;;17.20;95.50;;;;;;5011538;28;20442;-68
2022/10/13 08:50:35;;;;;;;1.00;1.00;;;17.10;95.70;;;;;;5013935;28;20907;-69
2022/10/13 08:53:09;;;;;;;2.57;2.47;;;17.10;95.80;;;;;;5016405;28;20471;-67
2022/10/13 08:55:59;;;;;;;3.07;2.43;;;17.10;95.80;;;;;;5016462;28;20485;-67
2022/10/13 08:58:29;;;;;;;3.70;3.40;;;17.00;96.40;;;;;;5016678;28;20753;-69
2022/10/13 09:01:13;;;;;;;1.40;1.30;;;16.90;96.40;;;;;;5017278;28;20829;-69
2022/10/13 09:04:01;;;;;;;3.43;2.03;;;16.90;96.40;;;;;;5017520;28;20436;-69
2022/10/13 09:06:32;;;;;;;4.20;3.90;;;16.90;97.00;;;;;;5016977;28;20436;-69
2022/10/13 09:09:13;;;;;;;1.57;1.47;;;16.80;96.50;;;;;;5016997;28;20398;-69
2022/10/13 09:11:47;;;;;;;4.53;1.37;;;16.80;96.80;;;;;;5017400;28;20504;-69
2022/10/13 09:14:21;;;;;;;4.23;2.23;;;16.90;97.10;;;;;;5017014;28;20585;-68
2022/10/13 09:16:48;;;;;;;1.90;1.57;;;17.10;97.00;;;;;;5016540;28;20429;-69
2022/10/13 09:19:22;;;;;;;2.10;2.00;;;17.20;97.00;;;;;;5016596;28;20411;-69
2022/10/13 09:22:19;;;;;;;0.90;0.90;;;17.40;96.70;;;;;;5016640;28;20390;-68
2022/10/13 09:24:45;;;;;;;0.80;0.70;;;17.50;96.20;;;;;;5016841;28;20850;-70
2022/10/13 09:27:14;;;;;;;1.90;1.80;;;17.40;96.30;;;;;;5016559;28;20458;-68
2022/10/13 09:29:40;;;;;;;1.73;1.60;;;17.30;96.20;;;;;;5016296;28;20254;-68
2022/10/13 09:32:18;;;;;;;1.73;1.63;;;17.10;96.50;;;;;;5015821;28;20406;-68
2022/10/13 09:34:44;;;;;;;1.50;1.23;;;16.90;96.80;;;;;;5015550;28;20458;-68
2022/10/13 09:37:28;;;;;;;2.47;1.23;;;16.80;97.10;;;;;;5015494;28;20960;-69
2022/10/13 09:40:19;;;;;;;1.17;1.07;;;16.90;96.90;;;;;;5012438;28;20403;-68
2022/10/13 09:42:53;;;;;;;1.53;1.43;;;17.10;96.60;;;;;;5016703;28;20403;-68
2022/10/13 09:45:23;;;;;;;0.60;0.60;;;17.00;96.50;;;;;;5016612;28;20809;-68
2022/10/13 09:47:54;;;;;;;1.60;1.13;;;17.10;96.60;;;;;;5016183;28;20469;-69
2022/10/13 09:50:25;;;;;;;2.00;0.80;;;17.30;96.10;;;;;;5016252;28;20407;-69
2022/10/13 09:52:51;;;;;;;1.17;1.17;;;17.20;96.10;;;;;;5016628;28;20406;-69
2022/10/13 09:55:34;;;;;;;1.83;1.50;;;17.20;96.20;;;;;;5016442;28;20454;-70
2022/10/13 09:58:19;;;;;;;3.53;1.60;;;17.30;96.40;;;;;;5015850;28;20771;-69
2022/10/13 10:00:47;;;;;;;1.60;1.30;;;17.30;96.00;;;;;;5014899;28;20398;-68
2022/10/13 10:03:25;;;;;;;0.87;0.83;;;17.20;96.30;;;;;;5016025;28;20453;-68
2022/10/13 10:05:55;;;;;;;1.53;1.07;;;17.40;96.70;;;;;;5016321;28;20402;-69
2022/10/13 10:08:57;;;;;;;1.90;1.80;;;17.50;95.90;;;;;;5015707;28;20430;-69
2022/10/13 10:11:35;;;;;;;1.53;1.37;;;17.60;95.60;;;;;;5015980;28;20402;-70
2022/10/13 10:14:26;;;;;;;3.90;1.43;;;17.70;95.20;;;;;;5016030;28;20478;-70
2022/10/13 10:17:16;;;;;;;0.60;0.60;;;17.80;95.00;;;;;;5015722;28;20469;-68
2022/10/13 10:20:15;;;;;;;1.10;1.10;;;18.00;94.90;;;;;;5015382;28;20407;-70
2022/10/13 10:23:05;;;;;;;0.83;0.83;;;18.20;94.90;;;;;;5015951;28;20529;-69
2022/10/13 10:25:51;;;;;;;0.77;0.77;;;18.10;94.10;;;;;;5015477;28;20399;-69
2022/10/13 10:28:52;;;;;;;0.73;0.73;;;18.30;94.30;;;;;;5016033;28;20906;-69
2022/10/13 10:31:29;;;;;;;1.03;0.93;;;18.60;94.40;;;;;;5006489;28;20432;-70
2022/10/13 10:34:15;;;;;;;0.93;0.93;;;18.80;92.60;;;;;;5013398;28;20456;-69
2022/10/13 10:37:06;;;;;;;0.50;0.50;;;18.70;92.70;;;;;;5015051;28;20863;-69
2022/10/13 10:39:53;;;;;;;0.50;0.50;;;18.70;92.80;;;;;;5014813;28;20419;-68
2022/10/13 10:42:56;;;;;;;1.80;1.03;;;18.60;92.50;;;;;;5015428;28;20908;-69
2022/10/13 10:45:26;;;;;;;0.80;0.63;;;18.80;92.90;;;;;;5015462;28;20905;-70
2022/10/13 10:48:11;;;;;;;0.50;0.50;;;19.00;92.10;;;;;;5015058;28;20457;-69
2022/10/13 10:50:38;;;;;;;1.33;1.23;;;19.20;92.20;;;;;;5015223;28;20827;-69
2022/10/13 10:53:25;;;;;;;0.70;0.70;;;19.30;91.70;;;;;;5015359;28;20410;-70
2022/10/13 10:55:59;;;;;;;1.13;0.87;;;19.20;91.90;;;;;;5015379;28;20453;-69
2022/10/13 10:58:46;;;;;;;0.67;0.67;;;19.10;91.10;;;;;;5013795;28;20411;-69
2022/10/13 11:01:17;;;;;;;1.77;0.87;;;19.20;91.10;;;;;;5014875;28;20404;-69
2022/10/13 11:04:02;;;;;;;0.70;0.70;;;19.20;91.60;;;;;;5014955;28;20791;-68
2022/10/13 11:06:36;;;;;;;0.90;0.50;;;19.10;90.90;;;;;;5014819;28;20514;-69
2022/10/13 11:09:04;;;;;;;0.50;0.50;;;18.80;91.20;;;;;;5015569;28;20403;-70
2022/10/13 11:11:32;;;;;;;1.37;1.20;;;18.70;91.50;;;;;;5014538;28;20481;-69
2022/10/13 11:14:19;;;;;;;0.50;0.50;;;18.70;91.90;;;;;;5014778;28;20445;-69
2022/10/13 11:17:14;;;;;;;0.60;0.60;;;18.70;91.50;;;;;;5014568;28;20448;-68
2022/10/13 11:19:40;;;;;;;5.50;0.77;;;18.70;91.90;;;;;;5014399;28;20433;-69
2022/10/13 11:22:06;;;;;;;0.70;0.70;;;18.80;91.80;;;;;;5014168;28;20913;-69
2022/10/13 11:24:40;;;;;;;0.40;0.40;;;18.80;92.20;;;;;;5014361;28;20660;-69
2022/10/13 11:27:15;;;;;;;0.50;0.50;;;18.70;92.20;;;;;;5014275;28;20230;-69
2022/10/13 11:29:52;;;;;;;0.40;0.40;;;18.60;92.50;;;;;;5012751;28;20945;-68
2022/10/13 11:32:29;;;;;;;0.83;0.83;;;18.40;92.50;;;;;;5014451;28;20404;-69
2022/10/13 11:35:03;;;;;;;1.43;0.50;;;18.30;92.80;;;;;;5014452;28;20460;-69
2022/10/13 11:37:50;;;;;;;0.70;0.60;;;18.30;93.20;;;;;;5014102;28;20932;-69
2022/10/13 11:40:53;;;;;;;0.70;0.70;;;18.10;93.80;;;;;;5014046;28;20433;-68
2022/10/13 11:43:25;;;;;;;1.23;1.07;;;18.10;94.00;;;;;;5014406;28;20426;-69
2022/10/13 11:46:12;;;;;;;0.40;0.40;;;18.00;93.90;;;;;;5014298;28;20924;-69
2022/10/13 11:48:37;;;;;;;0.73;0.73;;;18.00;94.10;;;;;;5014087;28;20403;-70
2022/10/13 11:51:03;;;;;;;1.03;0.93;;;17.90;94.20;;;;;;5013941;28;20409;-70
2022/10/13 11:53:42;;;;;;;1.03;0.87;;;18.10;94.20;;;;;;5014164;28;20171;-70
2022/10/13 11:56:20;;;;;;;2.50;2.30;;;18.00;94.20;;;;;;5014194;28;20177;-69
2022/10/13 11:58:46;;;;;;;0.50;0.50;;;17.70;94.30;;;;;;5014200;28;20769;-68
2022/10/13 12:01:14;;;;;;;0.90;0.80;;;17.80;94.80;;;;;;5013882;28;20540;-70
2022/10/13 12:03:42;;;;;;;0.63;0.63;;;17.60;94.40;;;;;;5014213;28;20172;-68
2022/10/13 12:06:31;;;;;;;0.60;0.60;;;18.00;97.20;;;;;;5014248;28;20802;-69
2022/10/13 12:08:59;;;;;;;0.70;0.70;;;18.10;94.60;;;;;;5014215;28;20450;-70
2022/10/13 12:11:29;;;;;;;1.00;1.00;;;18.20;94.50;;;;;;5013885;28;20443;-69
2022/10/13 12:13:55;;;;;;;0.60;0.60;;;18.30;93.80;;;;;;5014133;28;20445;-68
2022/10/13 12:16:21;;;;;;;0.40;0.40;;;18.50;93.80;;;;;;5013805;28;20946;-70
2022/10/13 12:18:47;;;;;;;0.80;0.80;;;18.70;93.50;;;;;;5013970;28;20436;-69
2022/10/13 12:21:19;;;;;;;1.00;0.90;;;18.90;93.00;;;;;;5013699;28;20404;-68
2022/10/13 12:23:46;;;;;;;2.00;0.80;;;18.80;92.80;;;;;;5016840;28;20418;-68
2022/10/13 12:26:20;;;;;;;0.50;0.50;;;18.70;93.30;;;;;;5017659;28;20823;-69
2022/10/13 12:28:55;;;;;;;0.60;0.60;;;18.70;93.70;;;;;;5017585;28;20405;-69
2022/10/13 12:31:26;;;;;;;0.83;0.80;;;18.80;93.30;;;;;;5018031;28;20502;-68
2022/10/13 12:33:58;;;;;;;0.83;0.73;;;18.90;93.00;;;;;;5017947;28;20449;-69
2022/10/13 12:36:30;;;;;;;1.93;0.73;;;18.90;93.00;;;;;;5016743;28;20440;-69
2022/10/13 12:39:00;;;;;;;1.40;1.30;;;19.00;92.90;;;;;;5015866;28;20408;-69
2022/10/13 12:41:32;;;;;;;0.50;0.50;;;19.00;93.50;;;;;;5017652;28;20794;-69
2022/10/13 12:43:58;;;;;;;0.73;0.73;;;19.10;93.10;;;;;;5015694;28;20412;-68
2022/10/13 12:46:51;;;;;;;0.60;0.40;;;19.20;92.70;;;;;;5016528;28;20544;-68
2022/10/13 12:49:19;;;;;;;0.93;0.93;;;19.20;93.00;;;;;;5016945;28;20421;-69
2022/10/13 12:51:57;;;;;;;0.90;0.90;;;19.20;92.70;;;;;;5013875;28;20876;-69
2022/10/13 12:54:29;;;;;;;0.50;0.50;;;19.10;92.70;;;;;;5017385;28;20481;-69
2022/10/13 12:57:01;;;;;;;0.40;0.40;;;19.10;93.10;;;;;;5016026;28;20433;-68
2022/10/13 12:59:29;;;;;;;0.60;0.60;;;19.10;92.50;;;;;;5016648;28;20408;-68
2022/10/13 13:02:00;;;;;;;1.27;0.77;;;19.20;93.00;;;;;;5017214;28;20455;-68
2022/10/13 13:04:31;;;;;;;0.63;0.63;;;19.30;92.80;;;;;;5016294;28;20407;-68
2022/10/13 13:06:59;;;;;;;1.60;0.90;;;19.30;92.10;;;;;;5015800;28;20432;-68